UAB weather

─░ncirlik Air Base
Adana, Adana Province, Turkey

Public forecast

Using degrees Celsius for public forecast. Weather courtesy of forecast.io.

METAR (pilot weather report)

Retrieved 2019/06/16 07:50 UTC (40 minutes ago):

LTAG 160750Z 19007KT 9999 SCT030 29/20 Q1006 NOSIG

TAF (pilot weather forecast)

Retrieved 2019/06/16 06:03 UTC (2 hours ago):

TAF LTAG 160440Z 1606/1706 VRB02KT 9999 SCT030 BECMG 1609/1612 18012KT BECMG 1616/1618 VRB02KT